YBCS METAR and TAF | Updated Today

YBCS METAR

Cairns International Airport

Observation time: 18 min. ago

YBCS 292030Z AUTO 13009KT 9999 // NCD 21/17 Q1015

Need help? Read our tutorial on how to read METARs or read the parsed version below.

Cairns International Airport (YBCS) METAR

  • Weather conditions on Thu, 29 Sep 2022 20:30:00 +0000 (18 min. ago):
  • Present conditions: Dry
  • Clouds: Nil cloud detected
  • Visibility: Greater than 10 km
  • Wind: 130 degrees at 9 knots
  • Temperature: 21 celsius
  • Dew point: 17 celsius
  • Pressure: 1015 millibars
  • Remarks: None


Useful to know...

YBCS TAF

Cairns International Airport

TAF YBCS 291703Z 2918/3018 16008KT 9999 SCT025 FM300000 10013KT 9999 FEW040 FM300900 16007KT 9999 FEW030
Observation time: 3:45 hr. ago
Need help? Read our tutorial on how to read TAFs or read the parsed version below.

Parsed version of TAF for Cairns International Airport (YBCS)

  • From 29 September at 18:00 UTC, to day 30 of the month at 18:00 UTC
  • Clouds: Scattered at 762 meters
  • Visibility: Greater than 10 km
  • Wind: 160 degrees at 8
  • From day 30 of the month at 00:00 UTC
  • Clouds: A few at 1219 meters
  • Visibility: Greater than 10 km
  • Wind: 100 degrees at 13
  • From day 30 of the month at 09:00 UTC
  • Clouds: A few at 914 meters
  • Visibility: Greater than 10 km
  • Wind: 160 degrees at 7

Airports near YBCS

No airports found within 100nm radius.